Montrose, United Kingdom
Current Conditions -  °F | °C
As of 6:50 AM on Monday 22 Dec 2014 (Local Time) from EGQL Reporting Station
Clear Clear  
Wind Chill: 37°   Ceiling: Unl
Heat Index: 45°   Visibility: 6mi
Dew Point: 41°   Wind: 18mph
Humidity: 87%   Direction: 240°WSW
Pressure: 29.53"   Gusts: NA
Location:  56.7°N, 2.45°W
Report Text: EGQL 220650Z 24016KT CAVOK 07/05 Q1000 BLU
Loading
Personal Weather Stations






























Interactive Weather Map New forecast layout! Learn more

10-Day Weather Forecast

Advertisements
Track Severe Weather on mobile